createdAt,value
2023-03-16T00:02:21.598Z,21.10
2023-03-16T00:04:49.025Z,21.60
2023-03-16T00:07:18.052Z,21.27
2023-03-16T00:09:45.696Z,19.17
2023-03-16T00:12:18.450Z,20.90
2023-03-16T00:14:49.705Z,19.48
2023-03-16T00:17:19.727Z,18.75
2023-03-16T00:19:55.439Z,18.92
2023-03-16T00:22:25.847Z,18.60
2023-03-16T00:24:54.067Z,17.50
2023-03-16T00:27:23.175Z,17.42
2023-03-16T00:29:56.260Z,17.52
2023-03-16T00:32:30.433Z,17.50
2023-03-16T00:34:58.753Z,17.20
2023-03-16T00:37:27.429Z,16.70
2023-03-16T00:39:56.475Z,16.92
2023-03-16T00:42:30.078Z,15.52
2023-03-16T00:45:01.845Z,16.10
2023-03-16T00:47:31.849Z,14.75
2023-03-16T00:50:01.198Z,16.90
2023-03-16T00:54:58.521Z,16.73
2023-03-16T00:57:30.233Z,17.60
2023-03-16T00:59:59.371Z,17.65
2023-03-16T01:02:28.591Z,19.30
2023-03-16T01:04:56.204Z,20.95
2023-03-16T01:07:23.839Z,20.33
2023-03-16T01:09:51.908Z,20.38
2023-03-16T01:12:20.490Z,18.90
2023-03-16T01:14:48.233Z,18.63
2023-03-16T01:17:17.463Z,18.30
2023-03-16T01:19:46.355Z,17.27
2023-03-16T01:22:15.716Z,16.65
2023-03-16T01:24:47.174Z,17.35
2023-03-16T01:27:15.130Z,17.17
2023-03-16T01:29:43.850Z,16.58
2023-03-16T01:32:13.144Z,15.40
2023-03-16T01:34:42.265Z,15.88
2023-03-16T01:37:12.182Z,16.13
2023-03-16T01:39:57.548Z,15.00
2023-03-16T01:42:25.192Z,15.65
2023-03-16T01:45:01.779Z,15.23
2023-03-16T01:47:39.201Z,15.32
2023-03-16T01:50:13.028Z,15.30
2023-03-16T01:55:13.934Z,14.35
2023-03-16T01:57:46.528Z,15.93
2023-03-16T02:00:21.123Z,15.90
2023-03-16T02:03:10.158Z,15.65
2023-03-16T02:05:59.656Z,16.02
2023-03-16T02:08:29.287Z,14.93
2023-03-16T02:10:57.468Z,16.10
2023-03-16T02:13:36.851Z,15.63
2023-03-16T02:16:07.257Z,15.70
2023-03-16T02:18:36.311Z,15.70
2023-03-16T02:21:16.555Z,14.65
2023-03-16T02:23:44.766Z,15.68
2023-03-16T02:26:23.011Z,15.02
2023-03-16T02:29:25.869Z,14.82
2023-03-16T02:31:55.508Z,16.05
2023-03-16T02:34:23.841Z,13.80
2023-03-16T02:36:54.051Z,14.43
2023-03-16T02:39:25.618Z,15.48
2023-03-16T02:41:53.398Z,14.60
2023-03-16T02:44:25.368Z,14.48
2023-03-16T02:47:00.199Z,14.43
2023-03-16T02:49:34.606Z,14.15
2023-03-16T02:52:03.753Z,14.50
2023-03-16T02:54:32.372Z,14.70
2023-03-16T02:56:59.991Z,17.20
2023-03-16T03:01:58.719Z,17.07
2023-03-16T03:04:26.520Z,16.83
2023-03-16T03:06:54.080Z,17.40
2023-03-16T03:09:21.772Z,16.02
2023-03-16T03:11:53.504Z,15.90
2023-03-16T03:14:25.477Z,14.10
2023-03-16T03:16:53.366Z,14.20
2023-03-16T03:19:20.919Z,14.57
2023-03-16T03:21:57.011Z,14.82
2023-03-16T03:24:24.790Z,14.80
2023-03-16T03:26:52.312Z,15.02
2023-03-16T03:29:21.666Z,15.50
2023-03-16T03:31:49.357Z,15.48
2023-03-16T03:34:24.159Z,14.95
2023-03-16T03:36:53.776Z,15.13
2023-03-16T03:39:21.635Z,16.00
2023-03-16T03:41:54.696Z,14.95
2023-03-16T03:44:24.440Z,16.23
2023-03-16T03:46:52.594Z,15.18
2023-03-16T03:49:20.814Z,15.32
2023-03-16T03:51:50.490Z,15.05
2023-03-16T03:54:25.318Z,15.40
2023-03-16T03:56:57.249Z,15.68
2023-03-16T03:59:25.061Z,16.42
2023-03-16T04:02:16.291Z,17.77
2023-03-16T04:04:56.136Z,16.17
2023-03-16T04:07:23.798Z,15.05
2023-03-16T04:09:54.973Z,15.68
2023-03-16T04:12:46.874Z,15.82
2023-03-16T04:15:15.474Z,16.10
2023-03-16T04:18:18.561Z,16.10
2023-03-16T04:20:46.836Z,15.85
2023-03-16T04:23:18.419Z,16.92
2023-03-16T04:25:49.603Z,15.73
2023-03-16T04:28:21.194Z,16.15
2023-03-16T04:30:55.482Z,15.95
2023-03-16T04:33:29.176Z,15.48
2023-03-16T04:35:57.859Z,16.27
2023-03-16T04:38:26.158Z,17.97
2023-03-16T04:41:04.388Z,17.20
2023-03-16T04:43:38.601Z,17.05
2023-03-16T04:46:16.843Z,17.13
2023-03-16T04:48:44.730Z,17.27
2023-03-16T04:51:12.548Z,17.17
2023-03-16T04:53:46.969Z,16.02
2023-03-16T04:56:24.306Z,17.75
2023-03-16T04:58:57.793Z,16.63
2023-03-16T05:01:31.112Z,16.00
2023-03-16T05:04:02.633Z,17.30
2023-03-16T05:06:33.421Z,17.88
2023-03-16T05:09:05.894Z,16.50
2023-03-16T05:11:36.653Z,16.80
2023-03-16T05:14:10.866Z,16.73
2023-03-16T05:16:52.741Z,18.20
2023-03-16T05:19:21.755Z,19.13
2023-03-16T05:21:49.977Z,18.58
2023-03-16T05:24:18.316Z,19.15
2023-03-16T05:26:46.104Z,21.40
2023-03-16T05:29:16.820Z,19.75
2023-03-16T05:31:47.838Z,19.25
2023-03-16T05:34:21.109Z,17.98
2023-03-16T05:36:49.045Z,16.55
2023-03-16T05:39:18.151Z,17.05
2023-03-16T05:41:48.811Z,16.95
2023-03-16T05:44:16.349Z,17.63
2023-03-16T05:47:07.183Z,16.65
2023-03-16T05:49:39.606Z,16.80
2023-03-16T05:52:13.949Z,17.92
2023-03-16T05:54:43.078Z,17.38
2023-03-16T05:57:11.445Z,20.95
2023-03-16T05:59:42.423Z,19.25
2023-03-16T06:02:11.659Z,20.85
2023-03-16T06:04:39.208Z,20.10
2023-03-16T06:07:07.516Z,21.30
2023-03-16T06:09:41.517Z,20.95
2023-03-16T06:12:14.780Z,23.58
2023-03-16T06:14:43.663Z,26.70
2023-03-16T06:17:14.325Z,29.35
2023-03-16T06:19:43.008Z,26.50
2023-03-16T06:22:11.054Z,24.48
2023-03-16T06:24:45.717Z,20.42
2023-03-16T06:27:14.779Z,17.95
2023-03-16T06:30:12.247Z,17.63
2023-03-16T06:32:45.451Z,18.67
2023-03-16T06:35:13.350Z,19.02
2023-03-16T06:37:49.072Z,17.50
2023-03-16T06:40:35.634Z,18.02
2023-03-16T06:43:07.981Z,17.98
2023-03-16T06:45:36.293Z,19.15
2023-03-16T06:48:04.268Z,16.92
2023-03-16T06:50:32.759Z,18.43
2023-03-16T06:53:01.161Z,17.88
2023-03-16T06:55:32.793Z,18.58
2023-03-16T06:58:01.730Z,19.45
2023-03-16T07:00:30.857Z,19.23
2023-03-16T07:03:00.458Z,20.80
2023-03-16T07:05:29.909Z,19.92
2023-03-16T07:08:02.702Z,19.73
2023-03-16T07:10:32.121Z,20.13
2023-03-16T07:13:00.021Z,22.55
2023-03-16T07:15:27.757Z,22.33
2023-03-16T07:17:58.203Z,21.80
2023-03-16T07:20:28.802Z,23.05
2023-03-16T07:22:57.038Z,22.90
2023-03-16T07:25:24.888Z,21.98
2023-03-16T07:27:54.927Z,23.50
2023-03-16T07:30:29.549Z,22.55
2023-03-16T07:32:57.688Z,24.17
2023-03-16T07:35:27.152Z,23.88
2023-03-16T07:37:55.874Z,23.43
2023-03-16T07:40:27.072Z,24.17
2023-03-16T07:43:00.840Z,26.30
2023-03-16T07:45:36.066Z,29.40
2023-03-16T07:48:07.788Z,31.08
2023-03-16T07:50:57.608Z,29.17
2023-03-16T07:53:25.741Z,31.75
2023-03-16T07:58:36.028Z,31.05
2023-03-16T08:01:04.233Z,31.58
2023-03-16T08:03:32.227Z,29.27
2023-03-16T08:06:05.614Z,28.33
2023-03-16T08:08:34.348Z,29.60
2023-03-16T08:11:02.221Z,32.60
2023-03-16T08:13:44.078Z,37.13
2023-03-16T08:16:13.636Z,34.40
2023-03-16T08:18:44.637Z,29.77
2023-03-16T08:23:44.120Z,29.95
2023-03-16T08:26:20.008Z,28.48
2023-03-16T08:28:54.429Z,28.73
2023-03-16T08:31:25.403Z,28.58
2023-03-16T08:34:04.525Z,28.10
2023-03-16T08:36:37.417Z,27.73
2023-03-16T08:39:07.583Z,28.63
2023-03-16T08:41:44.008Z,28.67
2023-03-16T08:44:23.886Z,28.77
2023-03-16T08:46:52.086Z,29.27
2023-03-16T08:49:21.242Z,31.02
2023-03-16T08:51:58.020Z,30.55
2023-03-16T08:54:25.705Z,28.65
2023-03-16T08:56:57.497Z,28.73
2023-03-16T08:59:30.262Z,28.90
2023-03-16T09:01:58.797Z,29.48
2023-03-16T09:04:28.461Z,29.30
2023-03-16T09:09:36.728Z,28.98
2023-03-16T09:12:06.164Z,27.55
2023-03-16T09:14:33.744Z,29.70
2023-03-16T09:17:07.881Z,30.75
2023-03-16T09:19:53.187Z,29.00
2023-03-16T09:22:22.170Z,29.70
2023-03-16T09:24:51.406Z,30.92
2023-03-16T09:27:20.794Z,31.35
2023-03-16T09:29:53.036Z,31.38
2023-03-16T09:32:21.093Z,31.15
2023-03-16T09:34:48.712Z,31.38
2023-03-16T09:37:44.525Z,31.10
2023-03-16T09:40:26.738Z,30.08
2023-03-16T09:43:03.084Z,29.33
2023-03-16T09:45:35.955Z,26.25
2023-03-16T09:48:05.799Z,26.45
2023-03-16T09:50:47.681Z,24.63
2023-03-16T09:53:32.059Z,26.17
2023-03-16T09:56:06.155Z,27.85
2023-03-16T09:58:34.304Z,27.92
2023-03-16T10:01:38.892Z,28.30
2023-03-16T10:04:13.351Z,28.50
2023-03-16T10:07:03.014Z,29.58
2023-03-16T10:09:41.821Z,29.92
2023-03-16T10:12:16.374Z,28.88
2023-03-16T10:14:47.563Z,26.55
2023-03-16T10:17:24.443Z,29.13
2023-03-16T10:19:58.199Z,27.15
2023-03-16T10:22:31.949Z,27.77
2023-03-16T10:25:14.097Z,27.35
2023-03-16T10:27:45.248Z,27.70
2023-03-16T10:30:31.204Z,28.67
2023-03-16T10:33:05.647Z,27.63
2023-03-16T10:35:55.792Z,26.83
2023-03-16T10:38:27.743Z,27.38
2023-03-16T10:40:57.935Z,27.80
2023-03-16T10:43:26.599Z,27.38
2023-03-16T10:46:00.548Z,26.98
2023-03-16T10:48:31.086Z,26.60
2023-03-16T10:51:12.187Z,26.80
2023-03-16T10:53:44.268Z,25.60
2023-03-16T10:56:23.939Z,24.33
2023-03-16T10:58:52.259Z,24.00
2023-03-16T11:01:32.099Z,22.80
2023-03-16T11:04:00.234Z,24.10
2023-03-16T11:06:33.449Z,24.35
2023-03-16T11:09:10.358Z,22.48
2023-03-16T11:11:38.384Z,23.05
2023-03-16T11:14:14.149Z,23.92
2023-03-16T11:17:04.297Z,23.33
2023-03-16T11:19:41.644Z,28.52
2023-03-16T11:22:16.524Z,27.55
2023-03-16T11:25:03.088Z,27.05
2023-03-16T11:27:36.968Z,27.08
2023-03-16T11:30:29.240Z,26.77
2023-03-16T11:33:00.681Z,25.88
2023-03-16T11:35:38.428Z,25.80
2023-03-16T11:38:16.864Z,27.77
2023-03-16T11:41:05.888Z,28.35
2023-03-16T11:46:17.538Z,24.25
2023-03-16T11:48:46.384Z,23.15
2023-03-16T11:51:26.052Z,20.55
2023-03-16T11:54:14.588Z,20.08
2023-03-16T11:57:00.024Z,19.63
2023-03-16T12:00:01.035Z,18.85
2023-03-16T12:02:48.516Z,16.90
2023-03-16T12:05:44.352Z,17.10
2023-03-16T12:08:35.219Z,16.60
2023-03-16T12:14:03.701Z,16.15
2023-03-16T12:17:13.641Z,14.98
2023-03-16T12:19:52.399Z,15.65
2023-03-16T12:22:33.008Z,15.65
2023-03-16T12:25:03.474Z,15.43
2023-03-16T12:27:34.854Z,13.77
2023-03-16T12:30:12.982Z,14.55
2023-03-16T12:32:55.833Z,13.88
2023-03-16T12:35:47.077Z,13.60
2023-03-16T12:38:50.223Z,13.95
2023-03-16T12:41:33.939Z,13.32
2023-03-16T12:44:10.922Z,13.57
2023-03-16T12:46:43.233Z,12.77
2023-03-16T12:49:11.848Z,12.23
2023-03-16T12:51:44.030Z,15.52
2023-03-16T12:56:54.246Z,11.65
2023-03-16T12:59:24.286Z,11.80
2023-03-16T13:02:06.869Z,11.30
2023-03-16T13:04:41.764Z,11.60
2023-03-16T13:07:22.787Z,12.00
2023-03-16T13:09:57.736Z,11.48
2023-03-16T13:12:37.024Z,11.52
2023-03-16T13:15:20.284Z,11.33
2023-03-16T13:18:02.525Z,11.00
2023-03-16T13:20:34.231Z,11.88
2023-03-16T13:23:18.408Z,11.43
2023-03-16T13:26:01.790Z,11.63
2023-03-16T13:28:36.131Z,12.43
2023-03-16T13:31:19.674Z,11.23
2023-03-16T13:33:48.535Z,12.52
2023-03-16T13:36:21.114Z,11.77
2023-03-16T13:39:20.960Z,11.88
2023-03-16T13:42:17.933Z,12.02
2023-03-16T13:44:47.630Z,10.60
2023-03-16T13:47:19.793Z,11.73
2023-03-16T13:49:58.487Z,12.30
2023-03-16T13:52:32.308Z,12.05
2023-03-16T13:55:02.640Z,12.55
2023-03-16T13:57:36.798Z,12.90
2023-03-16T14:00:08.258Z,12.15
2023-03-16T14:02:43.923Z,13.25
2023-03-16T14:05:26.249Z,12.63
2023-03-16T14:07:55.533Z,15.50
2023-03-16T14:10:26.747Z,13.50
2023-03-16T14:13:10.103Z,12.88
2023-03-16T14:15:38.838Z,13.55
2023-03-16T14:18:33.824Z,12.20
2023-03-16T14:21:07.212Z,11.77
2023-03-16T14:23:41.093Z,13.77
2023-03-16T14:26:15.283Z,12.98
2023-03-16T14:29:02.847Z,12.88
2023-03-16T14:31:39.883Z,11.80
2023-03-16T14:34:30.324Z,11.48
2023-03-16T14:37:12.641Z,11.25
2023-03-16T14:39:41.750Z,10.68
2023-03-16T14:42:30.772Z,10.63
2023-03-16T14:45:07.696Z,9.68
2023-03-16T14:47:43.579Z,11.23
2023-03-16T14:50:18.851Z,10.73
2023-03-16T14:52:50.676Z,10.98
2023-03-16T14:55:20.867Z,12.02
2023-03-16T14:57:51.554Z,10.85
2023-03-16T15:00:21.924Z,11.43
2023-03-16T15:02:59.391Z,11.30
2023-03-16T15:05:37.222Z,10.48
2023-03-16T15:08:11.789Z,12.10
2023-03-16T15:10:45.188Z,13.60
2023-03-16T15:13:53.043Z,14.27
2023-03-16T15:16:23.281Z,15.05
2023-03-16T15:18:52.067Z,15.13
2023-03-16T15:21:29.754Z,13.68
2023-03-16T15:24:02.229Z,13.27
2023-03-16T15:26:30.786Z,13.80
2023-03-16T15:28:58.769Z,17.45
2023-03-16T15:31:26.834Z,12.38
2023-03-16T15:33:54.386Z,11.88
2023-03-16T15:36:22.828Z,12.23
2023-03-16T15:38:53.874Z,12.45
2023-03-16T15:41:21.566Z,10.52
2023-03-16T15:43:53.204Z,9.95
2023-03-16T15:46:21.356Z,10.55
2023-03-16T15:48:48.921Z,10.88
2023-03-16T15:51:29.047Z,9.60
2023-03-16T15:54:07.065Z,10.65
2023-03-16T15:56:52.788Z,10.50
2023-03-16T15:59:28.925Z,10.82
2023-03-16T16:01:57.844Z,11.43
2023-03-16T16:04:26.174Z,10.88
2023-03-16T16:06:57.913Z,11.25
2023-03-16T16:09:25.950Z,10.15
2023-03-16T16:11:53.568Z,9.50
2023-03-16T16:14:25.938Z,10.18
2023-03-16T16:16:54.503Z,10.32
2023-03-16T16:19:22.209Z,9.98
2023-03-16T16:21:55.066Z,10.18
2023-03-16T16:24:23.573Z,10.45
2023-03-16T16:26:54.714Z,12.18
2023-03-16T16:29:26.793Z,12.52
2023-03-16T16:31:55.418Z,11.02
2023-03-16T16:34:25.744Z,11.32
2023-03-16T16:36:55.498Z,10.30
2023-03-16T16:39:24.271Z,10.30
2023-03-16T16:41:56.485Z,10.93
2023-03-16T16:44:28.811Z,10.13
2023-03-16T16:46:59.814Z,12.25
2023-03-16T16:49:30.721Z,12.32
2023-03-16T16:51:59.159Z,11.00
2023-03-16T16:54:31.348Z,11.77
2023-03-16T16:57:00.714Z,12.25
2023-03-16T16:59:36.943Z,12.57
2023-03-16T17:02:22.243Z,12.02
2023-03-16T17:04:53.745Z,12.80
2023-03-16T17:09:53.864Z,11.52
2023-03-16T17:12:23.549Z,14.23
2023-03-16T17:17:22.401Z,14.80
2023-03-16T17:19:52.273Z,14.40
2023-03-16T17:22:25.218Z,15.43
2023-03-16T17:24:57.542Z,14.90
2023-03-16T17:27:31.505Z,12.35
2023-03-16T17:29:59.103Z,14.43
2023-03-16T17:32:27.558Z,12.32
2023-03-16T17:34:55.911Z,13.40
2023-03-16T17:37:23.463Z,13.77
2023-03-16T17:39:52.098Z,12.98
2023-03-16T17:42:23.063Z,13.02
2023-03-16T17:44:53.343Z,12.80
2023-03-16T17:47:23.540Z,12.88
2023-03-16T17:49:51.959Z,13.30
2023-03-16T17:52:23.785Z,12.50
2023-03-16T17:54:54.220Z,12.52
2023-03-16T17:57:40.157Z,13.95
2023-03-16T18:00:30.176Z,14.60
2023-03-16T18:03:03.707Z,12.63
2023-03-16T18:05:34.218Z,13.18
2023-03-16T18:08:14.268Z,14.15
2023-03-16T18:10:46.886Z,15.85
2023-03-16T18:16:00.509Z,14.43
2023-03-16T18:18:31.700Z,15.82
2023-03-16T18:21:01.937Z,13.75
2023-03-16T18:23:32.463Z,16.05
2023-03-16T18:26:03.452Z,15.07
2023-03-16T18:28:31.599Z,14.75
2023-03-16T18:31:00.244Z,14.75
2023-03-16T18:33:34.725Z,15.35
2023-03-16T18:36:06.829Z,14.40
2023-03-16T18:38:38.458Z,15.23
2023-03-16T18:41:22.857Z,13.25
2023-03-16T18:43:53.573Z,11.85
2023-03-16T18:46:34.404Z,11.45
2023-03-16T18:49:11.162Z,12.65
2023-03-16T18:51:39.171Z,9.95
2023-03-16T18:54:21.067Z,10.85
2023-03-16T18:56:49.676Z,10.98
2023-03-16T18:59:17.677Z,11.27
2023-03-16T19:01:46.313Z,11.10
2023-03-16T19:04:26.033Z,11.77
2023-03-16T19:06:55.338Z,12.52
2023-03-16T19:09:29.068Z,12.38
2023-03-16T19:11:59.845Z,13.20
2023-03-16T19:14:31.974Z,13.00
2023-03-16T19:17:05.105Z,12.20
2023-03-16T19:19:33.047Z,13.30
2023-03-16T19:22:12.783Z,12.70
2023-03-16T19:24:48.222Z,12.60
2023-03-16T19:27:28.029Z,14.95
2023-03-16T19:29:58.784Z,17.43
2023-03-16T19:32:26.620Z,18.13
2023-03-16T19:34:56.693Z,20.33
2023-03-16T19:37:25.921Z,19.05
2023-03-16T19:39:53.540Z,18.73
2023-03-16T19:42:28.747Z,17.95
2023-03-16T19:44:56.877Z,17.75
2023-03-16T19:47:34.915Z,17.65
2023-03-16T19:50:06.262Z,18.42
2023-03-16T19:52:34.046Z,16.67
2023-03-16T19:55:01.803Z,16.70
2023-03-16T19:57:29.812Z,15.20
2023-03-16T20:00:06.682Z,16.35
2023-03-16T20:02:42.930Z,15.45
2023-03-16T20:05:17.672Z,16.13
2023-03-16T20:07:45.713Z,16.90
2023-03-16T20:10:18.807Z,17.42
2023-03-16T20:12:48.605Z,17.30
2023-03-16T20:15:20.954Z,16.75
2023-03-16T20:17:50.442Z,17.52
2023-03-16T20:20:26.986Z,16.73
2023-03-16T20:22:58.560Z,16.00
2023-03-16T20:25:30.911Z,15.90
2023-03-16T20:28:02.151Z,16.98
2023-03-16T20:30:31.217Z,19.08
2023-03-16T20:33:00.918Z,17.48
2023-03-16T20:35:31.292Z,18.45
2023-03-16T20:37:59.302Z,18.08
2023-03-16T20:40:27.078Z,17.30
2023-03-16T20:42:56.466Z,15.73
2023-03-16T20:45:30.640Z,18.70
2023-03-16T20:47:58.943Z,15.63
2023-03-16T20:50:29.313Z,15.02
2023-03-16T20:52:57.541Z,15.05
2023-03-16T20:55:29.328Z,14.45
2023-03-16T20:58:11.490Z,16.25
2023-03-16T21:00:40.359Z,14.50
2023-03-16T21:03:23.196Z,16.23
2023-03-16T21:05:54.271Z,15.27
2023-03-16T21:08:22.047Z,15.57
2023-03-16T21:10:53.684Z,14.88
2023-03-16T21:13:31.944Z,16.20
2023-03-16T21:16:03.446Z,16.52
2023-03-16T21:18:34.858Z,18.10
2023-03-16T21:21:03.320Z,16.75
2023-03-16T21:23:31.065Z,20.30
2023-03-16T21:26:01.554Z,20.23
2023-03-16T21:28:34.068Z,21.90
2023-03-16T21:31:03.014Z,23.38
2023-03-16T21:33:37.328Z,25.17
2023-03-16T21:36:12.458Z,26.02
2023-03-16T21:38:41.309Z,25.25
2023-03-16T21:41:09.267Z,23.67
2023-03-16T21:43:36.815Z,22.30
2023-03-16T21:46:06.094Z,20.25
2023-03-16T21:48:37.747Z,20.65
2023-03-16T21:51:18.913Z,20.00
2023-03-16T21:53:48.863Z,19.85
2023-03-16T21:56:20.749Z,21.25
2023-03-16T21:58:49.184Z,18.95
2023-03-16T22:01:30.600Z,19.08
2023-03-16T22:04:05.222Z,18.52
2023-03-16T22:06:33.460Z,17.77
2023-03-16T22:09:02.763Z,17.75
2023-03-16T22:11:31.505Z,17.80
2023-03-16T22:13:59.526Z,18.42
2023-03-16T22:16:31.662Z,18.73
2023-03-16T22:18:59.556Z,18.33
2023-03-16T22:21:41.342Z,17.48
2023-03-16T22:24:14.891Z,16.98
2023-03-16T22:26:42.780Z,17.73
2023-03-16T22:29:25.465Z,16.60
2023-03-16T22:31:57.757Z,16.77
2023-03-16T22:34:25.925Z,16.00
2023-03-16T22:36:54.064Z,16.05
2023-03-16T22:39:21.674Z,16.70
2023-03-16T22:41:49.300Z,16.80
2023-03-16T22:44:23.871Z,18.05
2023-03-16T22:46:51.559Z,17.45
2023-03-16T22:49:27.160Z,18.75
2023-03-16T22:51:57.455Z,16.13
2023-03-16T22:54:28.467Z,18.10
2023-03-16T22:56:56.960Z,17.60
2023-03-16T22:59:26.552Z,17.08
2023-03-16T23:04:25.887Z,16.67
2023-03-16T23:06:54.705Z,14.48
2023-03-16T23:09:22.663Z,15.02
2023-03-16T23:11:56.579Z,14.23
2023-03-16T23:14:29.257Z,13.10
2023-03-16T23:16:57.342Z,12.80
2023-03-16T23:19:32.984Z,14.23
2023-03-16T23:22:06.950Z,14.60
2023-03-16T23:24:36.189Z,15.07
2023-03-16T23:32:04.605Z,14.65
2023-03-16T23:34:33.386Z,16.90
2023-03-16T23:37:00.785Z,16.70
2023-03-16T23:39:28.986Z,17.88
2023-03-16T23:41:57.370Z,17.27
2023-03-16T23:44:27.615Z,16.30
2023-03-16T23:46:56.909Z,16.65
2023-03-16T23:49:27.689Z,16.13
2023-03-16T23:51:57.844Z,14.93
2023-03-16T23:56:55.660Z,14.93
2023-03-16T23:59:23.975Z,13.50
